sensor_id;sensor_type;location;lat;lon;timestamp;P1;durP1;ratioP1;P2;durP2;ratioP2
55362;SDS011;41244;49.242;9.060;2022-12-18T00:02:16;49.90;;;27.45;;
55362;SDS011;41244;49.242;9.060;2022-12-18T00:04:42;43.63;;;24.83;;
55362;SDS011;41244;49.242;9.060;2022-12-18T00:07:08;46.50;;;25.67;;
55362;SDS011;41244;49.242;9.060;2022-12-18T00:09:34;49.80;;;26.15;;
55362;SDS011;41244;49.242;9.060;2022-12-18T00:11:59;49.35;;;27.55;;
55362;SDS011;41244;49.242;9.060;2022-12-18T00:14:25;53.85;;;28.30;;
55362;SDS011;41244;49.242;9.060;2022-12-18T00:16:51;46.40;;;26.20;;
55362;SDS011;41244;49.242;9.060;2022-12-18T00:19:17;46.08;;;26.23;;
55362;SDS011;41244;49.242;9.060;2022-12-18T00:21:43;47.88;;;26.42;;
55362;SDS011;41244;49.242;9.060;2022-12-18T00:24:09;47.22;;;26.58;;
55362;SDS011;41244;49.242;9.060;2022-12-18T00:26:36;49.78;;;26.30;;
55362;SDS011;41244;49.242;9.060;2022-12-18T00:29:05;47.78;;;24.67;;
55362;SDS011;41244;49.242;9.060;2022-12-18T00:31:39;47.50;;;26.15;;
55362;SDS011;41244;49.242;9.060;2022-12-18T00:34:05;48.75;;;26.77;;
55362;SDS011;41244;49.242;9.060;2022-12-18T00:36:33;49.67;;;28.40;;
55362;SDS011;41244;49.242;9.060;2022-12-18T00:39:00;51.83;;;27.23;;
55362;SDS011;41244;49.242;9.060;2022-12-18T00:41:28;55.88;;;27.52;;
55362;SDS011;41244;49.242;9.060;2022-12-18T00:44:13;46.45;;;26.20;;
55362;SDS011;41244;49.242;9.060;2022-12-18T00:46:42;48.83;;;27.05;;
55362;SDS011;41244;49.242;9.060;2022-12-18T00:49:08;46.03;;;24.80;;
55362;SDS011;41244;49.242;9.060;2022-12-18T00:51:37;51.80;;;26.55;;
55362;SDS011;41244;49.242;9.060;2022-12-18T00:54:03;49.60;;;27.45;;
55362;SDS011;41244;49.242;9.060;2022-12-18T00:56:30;53.53;;;27.95;;
55362;SDS011;41244;49.242;9.060;2022-12-18T00:58:56;50.97;;;27.65;;
55362;SDS011;41244;49.242;9.060;2022-12-18T01:01:22;53.67;;;28.77;;
55362;SDS011;41244;49.242;9.060;2022-12-18T01:03:48;46.10;;;27.40;;
55362;SDS011;41244;49.242;9.060;2022-12-18T01:06:14;53.45;;;29.55;;
55362;SDS011;41244;49.242;9.060;2022-12-18T01:08:40;52.55;;;29.33;;
55362;SDS011;41244;49.242;9.060;2022-12-18T01:11:11;57.58;;;28.48;;
55362;SDS011;41244;49.242;9.060;2022-12-18T01:13:41;53.03;;;28.48;;
55362;SDS011;41244;49.242;9.060;2022-12-18T01:16:07;53.97;;;27.38;;
55362;SDS011;41244;49.242;9.060;2022-12-18T01:18:34;60.63;;;29.77;;
55362;SDS011;41244;49.242;9.060;2022-12-18T01:21:00;48.53;;;26.98;;
55362;SDS011;41244;49.242;9.060;2022-12-18T01:23:26;54.17;;;27.55;;
55362;SDS011;41244;49.242;9.060;2022-12-18T01:25:51;51.50;;;28.75;;
55362;SDS011;41244;49.242;9.060;2022-12-18T01:28:17;55.05;;;27.88;;
55362;SDS011;41244;49.242;9.060;2022-12-18T01:30:43;51.35;;;26.33;;
55362;SDS011;41244;49.242;9.060;2022-12-18T01:33:09;55.97;;;29.92;;
55362;SDS011;41244;49.242;9.060;2022-12-18T01:35:39;59.70;;;31.52;;
55362;SDS011;41244;49.242;9.060;2022-12-18T01:38:09;53.08;;;27.67;;
55362;SDS011;41244;49.242;9.060;2022-12-18T01:40:35;58.35;;;29.25;;
55362;SDS011;41244;49.242;9.060;2022-12-18T01:43:00;51.92;;;28.17;;
55362;SDS011;41244;49.242;9.060;2022-12-18T01:48:03;56.70;;;31.38;;
55362;SDS011;41244;49.242;9.060;2022-12-18T01:50:38;57.33;;;32.28;;
55362;SDS011;41244;49.242;9.060;2022-12-18T01:53:07;62.67;;;35.38;;
55362;SDS011;41244;49.242;9.060;2022-12-18T01:55:45;60.85;;;34.10;;
55362;SDS011;41244;49.242;9.060;2022-12-18T01:58:24;42.20;;;22.40;;
55362;SDS011;41244;49.242;9.060;2022-12-18T02:01:08;55.22;;;29.33;;
55362;SDS011;41244;49.242;9.060;2022-12-18T02:03:34;56.20;;;28.17;;
55362;SDS011;41244;49.242;9.060;2022-12-18T02:13:53;53.35;;;28.63;;
55362;SDS011;41244;49.242;9.060;2022-12-18T02:16:54;57.20;;;29.60;;
55362;SDS011;41244;49.242;9.060;2022-12-18T02:25:18;55.17;;;28.90;;
55362;SDS011;41244;49.242;9.060;2022-12-18T02:28:16;58.65;;;28.63;;
55362;SDS011;41244;49.242;9.060;2022-12-18T02:30:46;54.35;;;30.75;;
55362;SDS011;41244;49.242;9.060;2022-12-18T02:33:13;58.28;;;30.05;;
55362;SDS011;41244;49.242;9.060;2022-12-18T02:35:40;54.35;;;30.80;;
55362;SDS011;41244;49.242;9.060;2022-12-18T02:38:06;64.05;;;32.38;;
55362;SDS011;41244;49.242;9.060;2022-12-18T02:40:32;58.63;;;31.98;;
55362;SDS011;41244;49.242;9.060;2022-12-18T02:43:12;57.45;;;31.10;;
55362;SDS011;41244;49.242;9.060;2022-12-18T02:45:46;62.97;;;33.50;;
55362;SDS011;41244;49.242;9.060;2022-12-18T02:48:20;58.45;;;32.40;;
55362;SDS011;41244;49.242;9.060;2022-12-18T02:51:03;63.63;;;32.67;;
55362;SDS011;41244;49.242;9.060;2022-12-18T02:53:58;64.13;;;30.73;;
55362;SDS011;41244;49.242;9.060;2022-12-18T02:56:37;66.38;;;35.72;;
55362;SDS011;41244;49.242;9.060;2022-12-18T02:59:09;69.70;;;36.92;;
55362;SDS011;41244;49.242;9.060;2022-12-18T03:02:06;68.20;;;33.67;;
55362;SDS011;41244;49.242;9.060;2022-12-18T03:10:34;54.50;;;30.95;;
55362;SDS011;41244;49.242;9.060;2022-12-18T03:13:06;56.13;;;31.02;;
55362;SDS011;41244;49.242;9.060;2022-12-18T03:18:13;54.07;;;28.03;;
55362;SDS011;41244;49.242;9.060;2022-12-18T03:20:47;57.33;;;31.05;;
55362;SDS011;41244;49.242;9.060;2022-12-18T03:23:17;62.00;;;31.70;;
55362;SDS011;41244;49.242;9.060;2022-12-18T03:25:47;58.60;;;31.10;;
55362;SDS011;41244;49.242;9.060;2022-12-18T03:28:15;63.80;;;31.20;;
55362;SDS011;41244;49.242;9.060;2022-12-18T03:30:46;59.85;;;31.92;;
55362;SDS011;41244;49.242;9.060;2022-12-18T03:33:24;59.75;;;32.40;;
55362;SDS011;41244;49.242;9.060;2022-12-18T03:36:15;59.35;;;30.92;;
55362;SDS011;41244;49.242;9.060;2022-12-18T03:38:41;52.47;;;28.00;;
55362;SDS011;41244;49.242;9.060;2022-12-18T03:41:18;54.58;;;30.27;;
55362;SDS011;41244;49.242;9.060;2022-12-18T03:44:05;59.97;;;32.28;;
55362;SDS011;41244;49.242;9.060;2022-12-18T03:49:24;55.47;;;29.52;;
55362;SDS011;41244;49.242;9.060;2022-12-18T03:52:09;58.78;;;29.27;;
55362;SDS011;41244;49.242;9.060;2022-12-18T03:54:55;58.75;;;31.05;;
55362;SDS011;41244;49.242;9.060;2022-12-18T03:57:22;59.30;;;30.10;;
55362;SDS011;41244;49.242;9.060;2022-12-18T03:59:54;57.10;;;27.98;;
55362;SDS011;41244;49.242;9.060;2022-12-18T04:02:33;55.47;;;26.98;;
55362;SDS011;41244;49.242;9.060;2022-12-18T04:05:00;56.25;;;29.95;;
55362;SDS011;41244;49.242;9.060;2022-12-18T04:07:29;61.70;;;30.40;;
55362;SDS011;41244;49.242;9.060;2022-12-18T04:09:55;52.55;;;27.08;;
55362;SDS011;41244;49.242;9.060;2022-12-18T04:12:25;59.33;;;29.25;;
55362;SDS011;41244;49.242;9.060;2022-12-18T04:14:51;50.88;;;28.17;;
55362;SDS011;41244;49.242;9.060;2022-12-18T04:17:17;60.15;;;30.90;;
55362;SDS011;41244;49.242;9.060;2022-12-18T04:19:43;61.92;;;32.00;;
55362;SDS011;41244;49.242;9.060;2022-12-18T04:22:10;62.35;;;31.95;;
55362;SDS011;41244;49.242;9.060;2022-12-18T04:24:36;54.88;;;30.00;;
55362;SDS011;41244;49.242;9.060;2022-12-18T04:27:02;65.20;;;33.53;;
55362;SDS011;41244;49.242;9.060;2022-12-18T04:29:28;61.65;;;32.53;;
55362;SDS011;41244;49.242;9.060;2022-12-18T04:31:54;62.08;;;31.63;;
55362;SDS011;41244;49.242;9.060;2022-12-18T04:34:20;59.90;;;32.50;;
55362;SDS011;41244;49.242;9.060;2022-12-18T04:36:46;57.75;;;31.35;;
55362;SDS011;41244;49.242;9.060;2022-12-18T04:39:12;58.70;;;31.60;;
55362;SDS011;41244;49.242;9.060;2022-12-18T04:41:37;60.30;;;32.67;;
55362;SDS011;41244;49.242;9.060;2022-12-18T04:44:03;59.85;;;31.38;;
55362;SDS011;41244;49.242;9.060;2022-12-18T04:46:29;65.35;;;32.63;;
55362;SDS011;41244;49.242;9.060;2022-12-18T04:48:55;62.83;;;33.00;;
55362;SDS011;41244;49.242;9.060;2022-12-18T04:51:21;53.05;;;31.30;;
55362;SDS011;41244;49.242;9.060;2022-12-18T04:53:46;59.05;;;31.17;;
55362;SDS011;41244;49.242;9.060;2022-12-18T04:56:13;60.00;;;30.80;;
55362;SDS011;41244;49.242;9.060;2022-12-18T04:58:41;62.55;;;31.60;;
55362;SDS011;41244;49.242;9.060;2022-12-18T05:01:08;58.38;;;27.45;;
55362;SDS011;41244;49.242;9.060;2022-12-18T05:03:36;50.65;;;28.85;;
55362;SDS011;41244;49.242;9.060;2022-12-18T05:06:02;63.85;;;30.85;;
55362;SDS011;41244;49.242;9.060;2022-12-18T05:08:29;57.75;;;30.63;;
55362;SDS011;41244;49.242;9.060;2022-12-18T05:11:05;59.80;;;29.92;;
55362;SDS011;41244;49.242;9.060;2022-12-18T05:13:34;57.65;;;31.27;;
55362;SDS011;41244;49.242;9.060;2022-12-18T05:16:00;60.25;;;29.05;;
55362;SDS011;41244;49.242;9.060;2022-12-18T05:18:27;56.55;;;29.13;;
55362;SDS011;41244;49.242;9.060;2022-12-18T05:20:53;55.92;;;30.50;;
55362;SDS011;41244;49.242;9.060;2022-12-18T05:23:20;57.67;;;31.33;;
55362;SDS011;41244;49.242;9.060;2022-12-18T05:28:22;53.38;;;29.77;;
55362;SDS011;41244;49.242;9.060;2022-12-18T05:30:49;57.42;;;29.20;;
55362;SDS011;41244;49.242;9.060;2022-12-18T05:33:26;60.25;;;30.73;;
55362;SDS011;41244;49.242;9.060;2022-12-18T05:35:56;59.42;;;31.23;;
55362;SDS011;41244;49.242;9.060;2022-12-18T05:38:27;56.53;;;29.55;;
55362;SDS011;41244;49.242;9.060;2022-12-18T05:40:54;56.00;;;28.40;;
55362;SDS011;41244;49.242;9.060;2022-12-18T05:43:21;63.17;;;29.10;;
55362;SDS011;41244;49.242;9.060;2022-12-18T05:45:47;52.83;;;28.60;;
55362;SDS011;41244;49.242;9.060;2022-12-18T05:48:14;60.47;;;30.70;;
55362;SDS011;41244;49.242;9.060;2022-12-18T05:50:41;59.38;;;29.95;;
55362;SDS011;41244;49.242;9.060;2022-12-18T05:53:10;55.38;;;30.88;;
55362;SDS011;41244;49.242;9.060;2022-12-18T05:55:38;59.25;;;30.48;;
55362;SDS011;41244;49.242;9.060;2022-12-18T05:58:05;55.88;;;28.60;;
55362;SDS011;41244;49.242;9.060;2022-12-18T06:00:33;56.20;;;29.90;;
55362;SDS011;41244;49.242;9.060;2022-12-18T06:03:04;56.08;;;30.35;;
55362;SDS011;41244;49.242;9.060;2022-12-18T06:05:35;60.10;;;29.08;;
55362;SDS011;41244;49.242;9.060;2022-12-18T06:08:02;57.58;;;30.10;;
55362;SDS011;41244;49.242;9.060;2022-12-18T06:10:28;58.65;;;29.63;;
55362;SDS011;41244;49.242;9.060;2022-12-18T06:12:53;60.53;;;28.95;;
55362;SDS011;41244;49.242;9.060;2022-12-18T06:15:19;55.95;;;28.40;;
55362;SDS011;41244;49.242;9.060;2022-12-18T06:17:45;57.55;;;29.33;;
55362;SDS011;41244;49.242;9.060;2022-12-18T06:20:11;62.72;;;29.00;;
55362;SDS011;41244;49.242;9.060;2022-12-18T06:22:36;58.25;;;29.25;;
55362;SDS011;41244;49.242;9.060;2022-12-18T06:25:02;55.42;;;27.98;;
55362;SDS011;41244;49.242;9.060;2022-12-18T06:27:29;60.55;;;28.45;;
55362;SDS011;41244;49.242;9.060;2022-12-18T06:29:55;55.28;;;27.35;;
55362;SDS011;41244;49.242;9.060;2022-12-18T06:32:20;55.05;;;28.40;;
55362;SDS011;41244;49.242;9.060;2022-12-18T06:34:46;56.67;;;29.05;;
55362;SDS011;41244;49.242;9.060;2022-12-18T06:37:12;56.72;;;27.77;;
55362;SDS011;41244;49.242;9.060;2022-12-18T06:39:38;54.42;;;27.95;;
55362;SDS011;41244;49.242;9.060;2022-12-18T06:42:04;55.92;;;25.08;;
55362;SDS011;41244;49.242;9.060;2022-12-18T06:44:30;53.08;;;27.42;;
55362;SDS011;41244;49.242;9.060;2022-12-18T06:46:55;57.88;;;28.77;;
55362;SDS011;41244;49.242;9.060;2022-12-18T06:49:21;54.10;;;27.88;;
55362;SDS011;41244;49.242;9.060;2022-12-18T06:51:47;51.45;;;26.48;;
55362;SDS011;41244;49.242;9.060;2022-12-18T06:54:12;58.35;;;28.38;;
55362;SDS011;41244;49.242;9.060;2022-12-18T06:56:38;53.10;;;26.92;;
55362;SDS011;41244;49.242;9.060;2022-12-18T06:59:04;56.35;;;27.17;;
55362;SDS011;41244;49.242;9.060;2022-12-18T07:01:30;53.65;;;27.88;;
55362;SDS011;41244;49.242;9.060;2022-12-18T07:03:56;54.92;;;28.48;;
55362;SDS011;41244;49.242;9.060;2022-12-18T07:06:23;56.15;;;28.38;;
55362;SDS011;41244;49.242;9.060;2022-12-18T07:08:50;52.90;;;28.27;;
55362;SDS011;41244;49.242;9.060;2022-12-18T07:11:18;52.22;;;26.13;;
55362;SDS011;41244;49.242;9.060;2022-12-18T07:13:44;55.67;;;25.02;;
55362;SDS011;41244;49.242;9.060;2022-12-18T07:16:12;55.17;;;27.60;;
55362;SDS011;41244;49.242;9.060;2022-12-18T07:18:45;55.58;;;27.05;;
55362;SDS011;41244;49.242;9.060;2022-12-18T07:21:12;47.85;;;25.60;;
55362;SDS011;41244;49.242;9.060;2022-12-18T07:23:41;51.28;;;25.35;;
55362;SDS011;41244;49.242;9.060;2022-12-18T07:26:08;53.35;;;25.13;;
55362;SDS011;41244;49.242;9.060;2022-12-18T07:28:38;48.65;;;24.70;;
55362;SDS011;41244;49.242;9.060;2022-12-18T07:31:05;48.72;;;23.08;;
55362;SDS011;41244;49.242;9.060;2022-12-18T07:33:37;54.47;;;27.05;;
55362;SDS011;41244;49.242;9.060;2022-12-18T07:36:04;43.25;;;21.95;;
55362;SDS011;41244;49.242;9.060;2022-12-18T07:38:32;54.65;;;25.60;;
55362;SDS011;41244;49.242;9.060;2022-12-18T07:41:09;40.08;;;21.10;;
55362;SDS011;41244;49.242;9.060;2022-12-18T07:43:37;53.17;;;26.52;;
55362;SDS011;41244;49.242;9.060;2022-12-18T07:46:04;49.00;;;25.83;;
55362;SDS011;41244;49.242;9.060;2022-12-18T07:48:30;55.35;;;26.42;;
55362;SDS011;41244;49.242;9.060;2022-12-18T07:51:00;47.42;;;24.08;;
55362;SDS011;41244;49.242;9.060;2022-12-18T07:53:27;49.85;;;25.38;;
55362;SDS011;41244;49.242;9.060;2022-12-18T07:55:57;47.08;;;23.67;;
55362;SDS011;41244;49.242;9.060;2022-12-18T07:58:24;49.42;;;25.05;;
55362;SDS011;41244;49.242;9.060;2022-12-18T08:00:50;47.22;;;23.50;;
55362;SDS011;41244;49.242;9.060;2022-12-18T08:03:17;51.70;;;26.02;;
55362;SDS011;41244;49.242;9.060;2022-12-18T08:05:44;54.35;;;27.77;;
55362;SDS011;41244;49.242;9.060;2022-12-18T08:08:09;65.90;;;35.92;;
55362;SDS011;41244;49.242;9.060;2022-12-18T08:10:35;61.13;;;31.77;;
55362;SDS011;41244;49.242;9.060;2022-12-18T08:13:03;48.15;;;22.83;;
55362;SDS011;41244;49.242;9.060;2022-12-18T08:15:28;50.35;;;24.92;;
55362;SDS011;41244;49.242;9.060;2022-12-18T08:17:57;46.03;;;24.05;;
55362;SDS011;41244;49.242;9.060;2022-12-18T08:20:23;58.22;;;30.48;;
55362;SDS011;41244;49.242;9.060;2022-12-18T08:22:48;54.65;;;29.30;;
55362;SDS011;41244;49.242;9.060;2022-12-18T08:25:14;50.03;;;25.52;;
55362;SDS011;41244;49.242;9.060;2022-12-18T08:27:40;51.30;;;24.83;;
55362;SDS011;41244;49.242;9.060;2022-12-18T08:30:06;50.83;;;26.27;;
55362;SDS011;41244;49.242;9.060;2022-12-18T08:32:33;54.67;;;31.70;;
55362;SDS011;41244;49.242;9.060;2022-12-18T08:34:58;58.80;;;27.15;;
55362;SDS011;41244;49.242;9.060;2022-12-18T08:37:24;48.80;;;25.35;;
55362;SDS011;41244;49.242;9.060;2022-12-18T08:39:50;61.05;;;28.17;;
55362;SDS011;41244;49.242;9.060;2022-12-18T08:42:16;62.40;;;30.08;;
55362;SDS011;41244;49.242;9.060;2022-12-18T08:47:26;46.40;;;20.80;;
55362;SDS011;41244;49.242;9.060;2022-12-18T08:49:52;43.33;;;22.38;;
55362;SDS011;41244;49.242;9.060;2022-12-18T08:52:17;59.47;;;27.23;;
55362;SDS011;41244;49.242;9.060;2022-12-18T08:54:44;53.90;;;25.50;;
55362;SDS011;41244;49.242;9.060;2022-12-18T08:57:09;55.95;;;25.60;;
55362;SDS011;41244;49.242;9.060;2022-12-18T08:59:35;56.10;;;27.02;;
55362;SDS011;41244;49.242;9.060;2022-12-18T09:02:01;54.85;;;27.38;;
55362;SDS011;41244;49.242;9.060;2022-12-18T09:04:27;50.30;;;24.13;;
55362;SDS011;41244;49.242;9.060;2022-12-18T09:06:52;51.15;;;25.20;;
55362;SDS011;41244;49.242;9.060;2022-12-18T09:09:20;54.92;;;24.48;;
55362;SDS011;41244;49.242;9.060;2022-12-18T09:11:46;54.78;;;26.92;;
55362;SDS011;41244;49.242;9.060;2022-12-18T09:14:11;51.42;;;25.90;;
55362;SDS011;41244;49.242;9.060;2022-12-18T09:16:37;50.20;;;26.27;;
55362;SDS011;41244;49.242;9.060;2022-12-18T09:19:03;52.30;;;25.80;;
55362;SDS011;41244;49.242;9.060;2022-12-18T09:21:31;57.28;;;26.00;;
55362;SDS011;41244;49.242;9.060;2022-12-18T09:23:59;56.15;;;26.38;;
55362;SDS011;41244;49.242;9.060;2022-12-18T09:26:25;57.15;;;27.02;;
55362;SDS011;41244;49.242;9.060;2022-12-18T09:28:52;52.50;;;26.25;;
55362;SDS011;41244;49.242;9.060;2022-12-18T09:31:19;46.25;;;22.95;;
55362;SDS011;41244;49.242;9.060;2022-12-18T09:33:46;58.05;;;28.33;;
55362;SDS011;41244;49.242;9.060;2022-12-18T09:36:13;60.60;;;28.50;;
55362;SDS011;41244;49.242;9.060;2022-12-18T09:38:40;57.53;;;26.75;;
55362;SDS011;41244;49.242;9.060;2022-12-18T09:44:28;46.63;;;22.55;;
55362;SDS011;41244;49.242;9.060;2022-12-18T09:47:11;56.65;;;26.75;;
55362;SDS011;41244;49.242;9.060;2022-12-18T09:49:44;53.53;;;25.20;;
55362;SDS011;41244;49.242;9.060;2022-12-18T09:52:17;48.58;;;24.52;;
55362;SDS011;41244;49.242;9.060;2022-12-18T09:55:11;50.28;;;23.00;;
55362;SDS011;41244;49.242;9.060;2022-12-18T09:58:04;59.67;;;28.58;;
55362;SDS011;41244;49.242;9.060;2022-12-18T10:00:56;54.55;;;26.83;;
55362;SDS011;41244;49.242;9.060;2022-12-18T10:03:22;61.17;;;28.83;;
55362;SDS011;41244;49.242;9.060;2022-12-18T10:09:06;55.85;;;26.35;;
55362;SDS011;41244;49.242;9.060;2022-12-18T10:20:01;59.35;;;27.40;;
55362;SDS011;41244;49.242;9.060;2022-12-18T10:25:26;61.78;;;29.98;;
55362;SDS011;41244;49.242;9.060;2022-12-18T10:28:12;62.40;;;28.83;;
55362;SDS011;41244;49.242;9.060;2022-12-18T10:30:40;54.17;;;27.23;;
55362;SDS011;41244;49.242;9.060;2022-12-18T10:33:13;51.03;;;23.45;;
55362;SDS011;41244;49.242;9.060;2022-12-18T10:35:43;61.35;;;28.23;;
55362;SDS011;41244;49.242;9.060;2022-12-18T10:41:00;56.45;;;27.52;;
55362;SDS011;41244;49.242;9.060;2022-12-18T10:46:02;57.38;;;27.02;;
55362;SDS011;41244;49.242;9.060;2022-12-18T10:51:18;52.30;;;27.38;;
55362;SDS011;41244;49.242;9.060;2022-12-18T10:54:18;57.05;;;27.50;;
55362;SDS011;41244;49.242;9.060;2022-12-18T10:56:47;52.53;;;26.40;;
55362;SDS011;41244;49.242;9.060;2022-12-18T10:59:14;52.65;;;25.60;;
55362;SDS011;41244;49.242;9.060;2022-12-18T11:06:56;61.10;;;29.80;;
55362;SDS011;41244;49.242;9.060;2022-12-18T11:09:23;53.30;;;24.65;;
55362;SDS011;41244;49.242;9.060;2022-12-18T11:11:58;55.35;;;28.33;;
55362;SDS011;41244;49.242;9.060;2022-12-18T11:14:50;50.97;;;24.80;;
55362;SDS011;41244;49.242;9.060;2022-12-18T11:17:33;55.70;;;26.42;;
55362;SDS011;41244;49.242;9.060;2022-12-18T11:22:28;53.50;;;24.40;;
55362;SDS011;41244;49.242;9.060;2022-12-18T11:25:05;58.50;;;26.27;;
55362;SDS011;41244;49.242;9.060;2022-12-18T11:27:41;51.90;;;25.75;;
55362;SDS011;41244;49.242;9.060;2022-12-18T11:30:23;54.95;;;26.40;;
55362;SDS011;41244;49.242;9.060;2022-12-18T11:35:51;55.97;;;28.10;;
55362;SDS011;41244;49.242;9.060;2022-12-18T11:38:24;55.03;;;25.88;;
55362;SDS011;41244;49.242;9.060;2022-12-18T11:44:08;60.13;;;26.98;;
55362;SDS011;41244;49.242;9.060;2022-12-18T11:46:41;55.50;;;27.60;;
55362;SDS011;41244;49.242;9.060;2022-12-18T11:49:24;55.10;;;28.63;;
55362;SDS011;41244;49.242;9.060;2022-12-18T11:51:56;61.50;;;28.83;;
55362;SDS011;41244;49.242;9.060;2022-12-18T11:54:28;56.92;;;27.50;;
55362;SDS011;41244;49.242;9.060;2022-12-18T12:09:03;49.35;;;25.35;;
55362;SDS011;41244;49.242;9.060;2022-12-18T12:17:43;50.13;;;25.20;;
55362;SDS011;41244;49.242;9.060;2022-12-18T12:32:51;53.85;;;26.25;;
55362;SDS011;41244;49.242;9.060;2022-12-18T12:35:32;55.25;;;26.60;;
55362;SDS011;41244;49.242;9.060;2022-12-18T12:38:28;50.67;;;25.35;;
55362;SDS011;41244;49.242;9.060;2022-12-18T12:41:08;53.50;;;25.50;;
55362;SDS011;41244;49.242;9.060;2022-12-18T12:43:58;55.65;;;25.98;;
55362;SDS011;41244;49.242;9.060;2022-12-18T12:46:28;55.35;;;26.10;;
55362;SDS011;41244;49.242;9.060;2022-12-18T12:49:19;57.28;;;28.65;;
55362;SDS011;41244;49.242;9.060;2022-12-18T12:52:03;50.70;;;26.27;;
55362;SDS011;41244;49.242;9.060;2022-12-18T12:54:37;53.40;;;27.35;;
55362;SDS011;41244;49.242;9.060;2022-12-18T13:05:58;54.25;;;28.65;;
55362;SDS011;41244;49.242;9.060;2022-12-18T13:08:30;51.15;;;26.25;;
55362;SDS011;41244;49.242;9.060;2022-12-18T13:10:59;56.33;;;27.50;;
55362;SDS011;41244;49.242;9.060;2022-12-18T13:13:50;52.45;;;27.00;;
55362;SDS011;41244;49.242;9.060;2022-12-18T13:16:20;51.78;;;25.17;;
55362;SDS011;41244;49.242;9.060;2022-12-18T13:18:50;49.58;;;25.75;;
55362;SDS011;41244;49.242;9.060;2022-12-18T13:23:52;52.35;;;27.83;;
55362;SDS011;41244;49.242;9.060;2022-12-18T13:36:45;55.70;;;25.98;;
55362;SDS011;41244;49.242;9.060;2022-12-18T13:41:53;54.00;;;26.52;;
55362;SDS011;41244;49.242;9.060;2022-12-18T13:48:14;53.03;;;25.35;;
55362;SDS011;41244;49.242;9.060;2022-12-18T13:50:42;55.45;;;26.83;;
55362;SDS011;41244;49.242;9.060;2022-12-18T13:53:16;54.00;;;26.13;;
55362;SDS011;41244;49.242;9.060;2022-12-18T13:55:49;51.08;;;25.45;;
55362;SDS011;41244;49.242;9.060;2022-12-18T13:58:16;51.85;;;25.65;;
55362;SDS011;41244;49.242;9.060;2022-12-18T14:00:42;50.50;;;25.05;;
55362;SDS011;41244;49.242;9.060;2022-12-18T14:03:22;51.15;;;25.70;;
55362;SDS011;41244;49.242;9.060;2022-12-18T14:06:12;53.35;;;27.38;;
55362;SDS011;41244;49.242;9.060;2022-12-18T14:08:38;54.78;;;27.02;;
55362;SDS011;41244;49.242;9.060;2022-12-18T14:11:06;56.45;;;29.98;;
55362;SDS011;41244;49.242;9.060;2022-12-18T14:13:36;51.45;;;25.67;;
55362;SDS011;41244;49.242;9.060;2022-12-18T14:16:05;50.33;;;25.77;;
55362;SDS011;41244;49.242;9.060;2022-12-18T14:18:50;52.85;;;26.70;;
55362;SDS011;41244;49.242;9.060;2022-12-18T14:21:27;54.85;;;27.60;;
55362;SDS011;41244;49.242;9.060;2022-12-18T14:24:04;50.17;;;25.45;;
55362;SDS011;41244;49.242;9.060;2022-12-18T14:26:45;52.42;;;24.60;;
55362;SDS011;41244;49.242;9.060;2022-12-18T14:29:19;52.95;;;27.17;;
55362;SDS011;41244;49.242;9.060;2022-12-18T14:32:05;56.03;;;26.45;;
55362;SDS011;41244;49.242;9.060;2022-12-18T14:34:42;54.65;;;26.55;;
55362;SDS011;41244;49.242;9.060;2022-12-18T14:37:17;57.33;;;28.25;;
55362;SDS011;41244;49.242;9.060;2022-12-18T14:42:23;56.10;;;27.98;;
55362;SDS011;41244;49.242;9.060;2022-12-18T14:45:18;61.33;;;29.20;;
55362;SDS011;41244;49.242;9.060;2022-12-18T14:48:06;53.85;;;26.30;;
55362;SDS011;41244;49.242;9.060;2022-12-18T14:50:34;53.92;;;26.08;;
55362;SDS011;41244;49.242;9.060;2022-12-18T14:53:00;55.38;;;27.35;;
55362;SDS011;41244;49.242;9.060;2022-12-18T14:55:26;52.30;;;26.00;;
55362;SDS011;41244;49.242;9.060;2022-12-18T14:57:52;49.28;;;25.13;;
55362;SDS011;41244;49.242;9.060;2022-12-18T15:00:20;53.05;;;25.75;;
55362;SDS011;41244;49.242;9.060;2022-12-18T15:02:49;53.33;;;26.75;;
55362;SDS011;41244;49.242;9.060;2022-12-18T15:05:28;62.25;;;28.00;;
55362;SDS011;41244;49.242;9.060;2022-12-18T15:07:56;54.67;;;26.88;;
55362;SDS011;41244;49.242;9.060;2022-12-18T15:10:31;58.10;;;27.35;;
55362;SDS011;41244;49.242;9.060;2022-12-18T15:25:56;53.65;;;27.75;;
55362;SDS011;41244;49.242;9.060;2022-12-18T15:28:47;58.33;;;30.42;;
55362;SDS011;41244;49.242;9.060;2022-12-18T15:36:18;56.53;;;28.50;;
55362;SDS011;41244;49.242;9.060;2022-12-18T15:38:47;55.40;;;27.25;;
55362;SDS011;41244;49.242;9.060;2022-12-18T15:41:14;51.28;;;26.52;;
55362;SDS011;41244;49.242;9.060;2022-12-18T15:43:42;51.05;;;25.23;;
55362;SDS011;41244;49.242;9.060;2022-12-18T15:46:11;52.78;;;26.25;;
55362;SDS011;41244;49.242;9.060;2022-12-18T15:48:48;50.05;;;23.85;;
55362;SDS011;41244;49.242;9.060;2022-12-18T15:51:22;51.53;;;26.05;;
55362;SDS011;41244;49.242;9.060;2022-12-18T15:53:57;45.95;;;23.67;;
55362;SDS011;41244;49.242;9.060;2022-12-18T15:56:25;53.08;;;28.30;;
55362;SDS011;41244;49.242;9.060;2022-12-18T16:01:40;53.97;;;26.40;;
55362;SDS011;41244;49.242;9.060;2022-12-18T16:04:09;49.63;;;24.58;;
55362;SDS011;41244;49.242;9.060;2022-12-18T16:06:37;50.42;;;24.33;;
55362;SDS011;41244;49.242;9.060;2022-12-18T16:09:04;46.38;;;24.15;;
55362;SDS011;41244;49.242;9.060;2022-12-18T16:11:30;49.90;;;23.75;;
55362;SDS011;41244;49.242;9.060;2022-12-18T16:16:54;48.53;;;24.48;;
55362;SDS011;41244;49.242;9.060;2022-12-18T16:19:25;47.60;;;23.75;;
55362;SDS011;41244;49.242;9.060;2022-12-18T16:21:52;47.63;;;25.55;;
55362;SDS011;41244;49.242;9.060;2022-12-18T16:24:22;48.30;;;24.13;;
55362;SDS011;41244;49.242;9.060;2022-12-18T16:26:53;49.95;;;25.70;;
55362;SDS011;41244;49.242;9.060;2022-12-18T16:29:23;48.58;;;22.80;;
55362;SDS011;41244;49.242;9.060;2022-12-18T16:31:52;43.55;;;25.27;;
55362;SDS011;41244;49.242;9.060;2022-12-18T16:34:20;45.47;;;24.17;;
55362;SDS011;41244;49.242;9.060;2022-12-18T16:36:55;44.08;;;22.40;;
55362;SDS011;41244;49.242;9.060;2022-12-18T16:39:21;45.50;;;22.65;;
55362;SDS011;41244;49.242;9.060;2022-12-18T16:41:47;45.03;;;22.95;;
55362;SDS011;41244;49.242;9.060;2022-12-18T16:44:14;43.15;;;22.90;;
55362;SDS011;41244;49.242;9.060;2022-12-18T16:46:40;49.55;;;23.60;;
55362;SDS011;41244;49.242;9.060;2022-12-18T16:49:10;47.53;;;21.08;;
55362;SDS011;41244;49.242;9.060;2022-12-18T16:51:37;49.08;;;24.30;;
55362;SDS011;41244;49.242;9.060;2022-12-18T16:54:03;46.10;;;24.10;;
55362;SDS011;41244;49.242;9.060;2022-12-18T16:56:30;47.42;;;24.00;;
55362;SDS011;41244;49.242;9.060;2022-12-18T16:58:57;44.00;;;22.77;;
55362;SDS011;41244;49.242;9.060;2022-12-18T17:01:24;49.22;;;24.45;;
55362;SDS011;41244;49.242;9.060;2022-12-18T17:03:54;51.85;;;28.20;;
55362;SDS011;41244;49.242;9.060;2022-12-18T17:06:23;49.15;;;25.88;;
55362;SDS011;41244;49.242;9.060;2022-12-18T17:08:56;39.78;;;21.13;;
55362;SDS011;41244;49.242;9.060;2022-12-18T17:11:31;52.58;;;24.75;;
55362;SDS011;41244;49.242;9.060;2022-12-18T17:13:58;41.90;;;21.00;;
55362;SDS011;41244;49.242;9.060;2022-12-18T17:16:24;46.85;;;24.15;;
55362;SDS011;41244;49.242;9.060;2022-12-18T17:18:51;45.47;;;23.02;;